sensor_id;sensor_type;location;lat;lon;timestamp;pressure;altitude;pressure_sealevel;temperature;humidity
48964;BME280;34776;48.180;16.420;2022-07-10T00:01:15;100114.28;;;17.45;76.59
48964;BME280;34776;48.180;16.420;2022-07-10T00:03:40;100113.75;;;17.40;76.71
48964;BME280;34776;48.180;16.420;2022-07-10T00:06:06;100111.53;;;17.34;76.98
48964;BME280;34776;48.180;16.420;2022-07-10T00:08:32;100113.72;;;17.29;77.37
48964;BME280;34776;48.180;16.420;2022-07-10T00:10:57;100109.75;;;17.21;77.28
48964;BME280;34776;48.180;16.420;2022-07-10T00:13:23;100103.97;;;17.15;78.04
48964;BME280;34776;48.180;16.420;2022-07-10T00:15:48;100108.72;;;17.11;78.10
48964;BME280;34776;48.180;16.420;2022-07-10T00:18:13;100104.53;;;17.07;78.17
48964;BME280;34776;48.180;16.420;2022-07-10T00:20:39;100106.59;;;17.03;78.31
48964;BME280;34776;48.180;16.420;2022-07-10T00:23:05;100095.22;;;17.00;78.32
48964;BME280;34776;48.180;16.420;2022-07-10T00:25:30;100094.50;;;16.98;78.28
48964;BME280;34776;48.180;16.420;2022-07-10T00:27:56;100105.97;;;17.00;78.12
48964;BME280;34776;48.180;16.420;2022-07-10T00:30:21;100096.97;;;17.01;78.19
48964;BME280;34776;48.180;16.420;2022-07-10T00:32:47;100091.59;;;17.01;77.85
48964;BME280;34776;48.180;16.420;2022-07-10T00:35:12;100087.28;;;16.98;77.96
48964;BME280;34776;48.180;16.420;2022-07-10T00:37:37;100084.59;;;16.98;77.83
48964;BME280;34776;48.180;16.420;2022-07-10T00:40:03;100081.81;;;17.00;78.12
48964;BME280;34776;48.180;16.420;2022-07-10T00:42:32;100089.00;;;16.99;77.96
48964;BME280;34776;48.180;16.420;2022-07-10T00:44:58;100081.06;;;16.98;77.82
48964;BME280;34776;48.180;16.420;2022-07-10T00:47:24;100079.56;;;16.94;78.32
48964;BME280;34776;48.180;16.420;2022-07-10T00:49:49;100081.63;;;16.90;78.50
48964;BME280;34776;48.180;16.420;2022-07-10T00:52:17;100087.13;;;16.89;78.79
48964;BME280;34776;48.180;16.420;2022-07-10T00:54:48;100071.22;;;16.86;78.97
48964;BME280;34776;48.180;16.420;2022-07-10T00:57:16;100078.53;;;16.83;79.20
48964;BME280;34776;48.180;16.420;2022-07-10T00:59:42;100073.41;;;16.80;79.36
48964;BME280;34776;48.180;16.420;2022-07-10T01:02:09;100076.41;;;16.76;79.83
48964;BME280;34776;48.180;16.420;2022-07-10T01:04:34;100070.38;;;16.72;79.60
48964;BME280;34776;48.180;16.420;2022-07-10T01:07:00;100073.28;;;16.69;80.07
48964;BME280;34776;48.180;16.420;2022-07-10T01:09:26;100073.41;;;16.68;80.58
48964;BME280;34776;48.180;16.420;2022-07-10T01:11:53;100062.03;;;16.64;80.31
48964;BME280;34776;48.180;16.420;2022-07-10T01:14:19;100063.97;;;16.62;80.56
48964;BME280;34776;48.180;16.420;2022-07-10T01:16:45;100056.91;;;16.61;80.62
48964;BME280;34776;48.180;16.420;2022-07-10T01:19:10;100057.13;;;16.58;80.52
48964;BME280;34776;48.180;16.420;2022-07-10T01:21:37;100051.00;;;16.56;80.33
48964;BME280;34776;48.180;16.420;2022-07-10T01:24:10;100050.25;;;16.54;80.68
48964;BME280;34776;48.180;16.420;2022-07-10T01:26:36;100053.78;;;16.54;80.54
48964;BME280;34776;48.180;16.420;2022-07-10T01:29:05;100046.63;;;16.55;80.72
48964;BME280;34776;48.180;16.420;2022-07-10T01:31:31;100045.53;;;16.57;80.15
48964;BME280;34776;48.180;16.420;2022-07-10T01:33:56;100044.69;;;16.57;80.34
48964;BME280;34776;48.180;16.420;2022-07-10T01:36:23;100040.06;;;16.59;79.72
48964;BME280;34776;48.180;16.420;2022-07-10T01:38:52;100042.84;;;16.57;79.62
48964;BME280;34776;48.180;16.420;2022-07-10T01:41:17;100035.00;;;16.54;79.66
48964;BME280;34776;48.180;16.420;2022-07-10T01:43:43;100032.47;;;16.53;79.90
48964;BME280;34776;48.180;16.420;2022-07-10T01:46:11;100036.00;;;16.53;79.98
48964;BME280;34776;48.180;16.420;2022-07-10T01:48:38;100037.81;;;16.53;79.85
48964;BME280;34776;48.180;16.420;2022-07-10T01:51:07;100027.09;;;16.53;79.57
48964;BME280;34776;48.180;16.420;2022-07-10T01:53:34;100019.78;;;16.55;79.74
48964;BME280;34776;48.180;16.420;2022-07-10T01:56:01;100022.97;;;16.60;79.60
48964;BME280;34776;48.180;16.420;2022-07-10T01:58:28;100019.75;;;16.68;79.10
48964;BME280;34776;48.180;16.420;2022-07-10T02:00:53;100014.78;;;16.74;78.69
48964;BME280;34776;48.180;16.420;2022-07-10T02:03:19;100017.03;;;16.80;78.35
48964;BME280;34776;48.180;16.420;2022-07-10T02:06:03;100020.97;;;16.88;78.12
48964;BME280;34776;48.180;16.420;2022-07-10T02:08:28;100011.97;;;16.89;77.49
48964;BME280;34776;48.180;16.420;2022-07-10T02:10:54;100010.03;;;16.91;77.25
48964;BME280;34776;48.180;16.420;2022-07-10T02:13:19;100006.16;;;16.95;76.98
48964;BME280;34776;48.180;16.420;2022-07-10T02:15:49;100013.84;;;16.99;76.78
48964;BME280;34776;48.180;16.420;2022-07-10T02:18:15;100000.53;;;16.98;76.66
48964;BME280;34776;48.180;16.420;2022-07-10T02:20:40;100005.91;;;16.98;76.60
48964;BME280;34776;48.180;16.420;2022-07-10T02:23:05;100005.91;;;16.98;76.39
48964;BME280;34776;48.180;16.420;2022-07-10T02:25:32;100004.19;;;16.97;76.25
48964;BME280;34776;48.180;16.420;2022-07-10T02:27:58;100003.56;;;16.93;75.83
48964;BME280;34776;48.180;16.420;2022-07-10T02:30:23;100001.22;;;16.89;75.92
48964;BME280;34776;48.180;16.420;2022-07-10T02:32:49;100000.59;;;16.85;75.89
48964;BME280;34776;48.180;16.420;2022-07-10T02:35:14;99992.66;;;16.83;75.74
48964;BME280;34776;48.180;16.420;2022-07-10T02:37:39;99994.59;;;16.81;75.82
48964;BME280;34776;48.180;16.420;2022-07-10T02:40:05;99989.44;;;16.78;75.75
48964;BME280;34776;48.180;16.420;2022-07-10T02:42:31;100003.06;;;16.75;75.38
48964;BME280;34776;48.180;16.420;2022-07-10T02:44:56;99996.00;;;16.74;75.69
48964;BME280;34776;48.180;16.420;2022-07-10T02:47:22;100007.47;;;16.76;75.30
48964;BME280;34776;48.180;16.420;2022-07-10T02:49:47;100002.97;;;16.77;75.49
48964;BME280;34776;48.180;16.420;2022-07-10T02:52:13;100008.66;;;16.72;75.54
48964;BME280;34776;48.180;16.420;2022-07-10T02:54:38;100010.59;;;16.70;75.60
48964;BME280;34776;48.180;16.420;2022-07-10T02:57:04;100002.31;;;16.73;75.48
48964;BME280;34776;48.180;16.420;2022-07-10T02:59:30;100000.38;;;16.75;75.30
48964;BME280;34776;48.180;16.420;2022-07-10T03:01:55;100007.56;;;16.75;75.14
48964;BME280;34776;48.180;16.420;2022-07-10T03:04:21;100011.13;;;16.75;75.04
48964;BME280;34776;48.180;16.420;2022-07-10T03:06:47;100008.22;;;16.78;74.65
48964;BME280;34776;48.180;16.420;2022-07-10T03:09:12;100005.53;;;16.78;74.76
48964;BME280;34776;48.180;16.420;2022-07-10T03:11:37;99996.63;;;16.78;74.61
48964;BME280;34776;48.180;16.420;2022-07-10T03:14:03;100000.94;;;16.80;74.36
48964;BME280;34776;48.180;16.420;2022-07-10T03:16:29;100001.44;;;16.86;74.37
48964;BME280;34776;48.180;16.420;2022-07-10T03:18:54;100010.03;;;16.91;74.10
48964;BME280;34776;48.180;16.420;2022-07-10T03:21:20;100010.88;;;16.91;73.91
48964;BME280;34776;48.180;16.420;2022-07-10T03:23:45;100004.41;;;16.94;74.04
48964;BME280;34776;48.180;16.420;2022-07-10T03:26:11;100007.84;;;16.96;74.06
48964;BME280;34776;48.180;16.420;2022-07-10T03:28:36;99999.03;;;16.94;73.82
48964;BME280;34776;48.180;16.420;2022-07-10T03:31:01;100009.78;;;16.94;73.85
48964;BME280;34776;48.180;16.420;2022-07-10T03:33:27;100004.53;;;16.92;73.60
48964;BME280;34776;48.180;16.420;2022-07-10T03:35:54;100007.50;;;17.00;73.59
48964;BME280;34776;48.180;16.420;2022-07-10T03:38:19;100012.28;;;17.08;73.52
48964;BME280;34776;48.180;16.420;2022-07-10T03:40:45;100014.88;;;17.10;73.41
48964;BME280;34776;48.180;16.420;2022-07-10T03:43:14;100009.78;;;17.18;73.26
48964;BME280;34776;48.180;16.420;2022-07-10T03:45:39;100006.22;;;17.17;73.12
48964;BME280;34776;48.180;16.420;2022-07-10T03:48:05;100007.47;;;17.24;72.66
48964;BME280;34776;48.180;16.420;2022-07-10T03:50:32;100007.22;;;17.28;72.77
48964;BME280;34776;48.180;16.420;2022-07-10T03:52:58;100009.69;;;17.31;72.69
48964;BME280;34776;48.180;16.420;2022-07-10T03:55:23;100002.13;;;17.36;72.46
48964;BME280;34776;48.180;16.420;2022-07-10T03:57:49;100001.41;;;17.34;72.60
48964;BME280;34776;48.180;16.420;2022-07-10T04:00:28;100008.72;;;17.32;72.66
48964;BME280;34776;48.180;16.420;2022-07-10T04:03:01;100008.72;;;17.32;72.50
48964;BME280;34776;48.180;16.420;2022-07-10T04:05:28;100012.13;;;17.34;72.49
48964;BME280;34776;48.180;16.420;2022-07-10T04:07:54;100020.09;;;17.35;72.45
48964;BME280;34776;48.180;16.420;2022-07-10T04:10:22;100016.56;;;17.35;72.40
48964;BME280;34776;48.180;16.420;2022-07-10T04:12:48;100020.72;;;17.39;72.24
48964;BME280;34776;48.180;16.420;2022-07-10T04:15:14;100015.09;;;17.42;71.79
48964;BME280;34776;48.180;16.420;2022-07-10T04:17:40;100013.16;;;17.44;71.66
48964;BME280;34776;48.180;16.420;2022-07-10T04:20:06;100016.34;;;17.49;71.63
48964;BME280;34776;48.180;16.420;2022-07-10T04:22:32;100002.56;;;17.54;71.25
48964;BME280;34776;48.180;16.420;2022-07-10T04:24:57;100010.47;;;17.55;70.88
48964;BME280;34776;48.180;16.420;2022-07-10T04:27:23;100005.50;;;17.62;70.71
48964;BME280;34776;48.180;16.420;2022-07-10T04:29:48;100009.78;;;17.64;70.47
48964;BME280;34776;48.180;16.420;2022-07-10T04:32:15;100020.44;;;17.77;70.07
48964;BME280;34776;48.180;16.420;2022-07-10T04:34:41;100017.19;;;17.85;69.88
48964;BME280;34776;48.180;16.420;2022-07-10T04:37:06;100010.09;;;17.95;69.36
48964;BME280;34776;48.180;16.420;2022-07-10T04:39:35;100010.47;;;18.02;69.08
48964;BME280;34776;48.180;16.420;2022-07-10T04:42:03;100007.41;;;18.07;69.10
48964;BME280;34776;48.180;16.420;2022-07-10T04:44:29;100003.41;;;18.12;68.50
48964;BME280;34776;48.180;16.420;2022-07-10T04:46:54;100013.16;;;18.13;68.48
48964;BME280;34776;48.180;16.420;2022-07-10T04:49:20;100011.31;;;18.14;67.89
48964;BME280;34776;48.180;16.420;2022-07-10T04:51:45;100009.63;;;18.13;68.09
48964;BME280;34776;48.180;16.420;2022-07-10T04:54:11;100009.63;;;18.13;68.06
48964;BME280;34776;48.180;16.420;2022-07-10T04:56:36;99992.50;;;18.14;68.08
48964;BME280;34776;48.180;16.420;2022-07-10T04:59:01;99998.13;;;18.22;67.97
48964;BME280;34776;48.180;16.420;2022-07-10T05:01:27;99990.28;;;18.30;67.42
48964;BME280;34776;48.180;16.420;2022-07-10T05:03:53;99997.88;;;18.36;67.12
48964;BME280;34776;48.180;16.420;2022-07-10T05:06:18;99989.91;;;18.46;66.73
48964;BME280;34776;48.180;16.420;2022-07-10T05:08:43;99989.75;;;18.59;66.73
48964;BME280;34776;48.180;16.420;2022-07-10T05:11:09;99992.56;;;18.80;65.98
48964;BME280;34776;48.180;16.420;2022-07-10T05:13:35;100001.09;;;18.85;65.37
48964;BME280;34776;48.180;16.420;2022-07-10T05:16:00;99992.56;;;18.80;65.48
48964;BME280;34776;48.180;16.420;2022-07-10T05:18:25;99991.69;;;18.79;65.07
48964;BME280;34776;48.180;16.420;2022-07-10T05:20:51;99998.28;;;18.86;65.29
48964;BME280;34776;48.180;16.420;2022-07-10T05:23:16;99994.13;;;18.82;65.51
48964;BME280;34776;48.180;16.420;2022-07-10T05:25:42;99996.25;;;19.00;65.19
48964;BME280;34776;48.180;16.420;2022-07-10T05:28:07;100001.63;;;19.11;64.78
48964;BME280;34776;48.180;16.420;2022-07-10T05:30:33;100004.03;;;19.14;64.13
48964;BME280;34776;48.180;16.420;2022-07-10T05:32:59;100002.47;;;19.12;63.76
48964;BME280;34776;48.180;16.420;2022-07-10T05:35:25;100009.28;;;18.83;64.21
48964;BME280;34776;48.180;16.420;2022-07-10T05:37:52;100013.09;;;18.81;64.60
48964;BME280;34776;48.180;16.420;2022-07-10T05:40:17;100007.06;;;18.89;64.70
48964;BME280;34776;48.180;16.420;2022-07-10T05:42:43;100019.31;;;18.93;64.28
48964;BME280;34776;48.180;16.420;2022-07-10T05:45:10;100016.72;;;19.02;64.05
48964;BME280;34776;48.180;16.420;2022-07-10T05:47:36;100020.59;;;19.10;63.63
48964;BME280;34776;48.180;16.420;2022-07-10T05:50:01;100020.47;;;19.11;63.91
48964;BME280;34776;48.180;16.420;2022-07-10T05:52:27;100024.69;;;19.25;63.25
48964;BME280;34776;48.180;16.420;2022-07-10T05:54:52;100021.06;;;19.36;62.79
48964;BME280;34776;48.180;16.420;2022-07-10T05:57:18;100020.56;;;19.42;62.21
48964;BME280;34776;48.180;16.420;2022-07-10T05:59:44;100018.13;;;19.39;62.39
48964;BME280;34776;48.180;16.420;2022-07-10T06:02:09;100031.34;;;19.42;62.29
48964;BME280;34776;48.180;16.420;2022-07-10T06:04:36;100024.56;;;19.26;62.36
48964;BME280;34776;48.180;16.420;2022-07-10T06:07:01;100020.63;;;19.31;62.38
48964;BME280;34776;48.180;16.420;2022-07-10T06:09:27;100024.28;;;19.30;62.23
48964;BME280;34776;48.180;16.420;2022-07-10T06:11:52;100026.41;;;19.26;62.29
48964;BME280;34776;48.180;16.420;2022-07-10T06:14:18;100029.50;;;19.21;62.46
48964;BME280;34776;48.180;16.420;2022-07-10T06:16:43;100030.00;;;19.15;62.05
48964;BME280;34776;48.180;16.420;2022-07-10T06:19:09;100028.34;;;19.03;62.35
48964;BME280;34776;48.180;16.420;2022-07-10T06:21:34;100032.22;;;19.10;62.54
48964;BME280;34776;48.180;16.420;2022-07-10T06:23:59;100021.75;;;19.28;62.32
48964;BME280;34776;48.180;16.420;2022-07-10T06:26:25;100026.41;;;19.26;62.00
48964;BME280;34776;48.180;16.420;2022-07-10T06:28:50;100023.50;;;19.18;62.11
48964;BME280;34776;48.180;16.420;2022-07-10T06:31:16;100024.50;;;19.38;61.99
48964;BME280;34776;48.180;16.420;2022-07-10T06:33:41;100018.88;;;19.41;61.17
48964;BME280;34776;48.180;16.420;2022-07-10T06:36:07;100019.84;;;19.61;61.14
48964;BME280;34776;48.180;16.420;2022-07-10T06:38:33;100026.19;;;19.71;60.30
48964;BME280;34776;48.180;16.420;2022-07-10T06:40:58;100020.19;;;19.67;60.35
48964;BME280;34776;48.180;16.420;2022-07-10T06:43:24;100028.00;;;19.92;59.93
48964;BME280;34776;48.180;16.420;2022-07-10T06:45:50;100017.00;;;20.04;59.26
48964;BME280;34776;48.180;16.420;2022-07-10T06:48:15;100014.50;;;20.13;59.20
48964;BME280;34776;48.180;16.420;2022-07-10T06:50:41;100020.28;;;20.08;58.90
48964;BME280;34776;48.180;16.420;2022-07-10T06:53:07;100014.91;;;20.08;59.18
48964;BME280;34776;48.180;16.420;2022-07-10T06:55:33;100019.59;;;20.16;59.18
48964;BME280;34776;48.180;16.420;2022-07-10T06:57:59;100023.75;;;20.20;58.28
48964;BME280;34776;48.180;16.420;2022-07-10T07:00:25;100029.28;;;20.18;58.46
48964;BME280;34776;48.180;16.420;2022-07-10T07:02:51;100020.50;;;20.26;58.16
48964;BME280;34776;48.180;16.420;2022-07-10T07:05:16;100028.41;;;20.18;57.94
48964;BME280;34776;48.180;16.420;2022-07-10T07:07:42;100021.91;;;20.20;57.62
48964;BME280;34776;48.180;16.420;2022-07-10T07:10:09;100030.19;;;20.28;57.27
48964;BME280;34776;48.180;16.420;2022-07-10T07:12:34;100032.72;;;20.30;57.36
48964;BME280;34776;48.180;16.420;2022-07-10T07:15:00;100035.78;;;20.16;56.95
48964;BME280;34776;48.180;16.420;2022-07-10T07:17:25;100043.00;;;20.05;56.74
48964;BME280;34776;48.180;16.420;2022-07-10T07:19:58;100025.50;;;20.00;57.04
48964;BME280;34776;48.180;16.420;2022-07-10T07:22:43;100015.31;;;20.03;56.19
48964;BME280;34776;48.180;16.420;2022-07-10T07:25:27;100029.00;;;20.21;56.38
48964;BME280;34776;48.180;16.420;2022-07-10T07:27:53;100026.78;;;20.36;55.07
48964;BME280;34776;48.180;16.420;2022-07-10T07:30:18;100024.00;;;20.47;55.00
48964;BME280;34776;48.180;16.420;2022-07-10T07:32:45;100025.16;;;20.55;54.29
48964;BME280;34776;48.180;16.420;2022-07-10T07:35:12;100031.06;;;20.39;54.78
48964;BME280;34776;48.180;16.420;2022-07-10T07:37:39;100024.72;;;20.50;54.66
48964;BME280;34776;48.180;16.420;2022-07-10T07:40:07;100013.97;;;20.59;54.12
48964;BME280;34776;48.180;16.420;2022-07-10T07:42:33;100019.81;;;20.74;54.34
48964;BME280;34776;48.180;16.420;2022-07-10T07:44:58;100021.97;;;20.80;53.97
48964;BME280;34776;48.180;16.420;2022-07-10T07:47:24;100021.22;;;20.59;53.88
48964;BME280;34776;48.180;16.420;2022-07-10T07:49:49;100034.94;;;20.15;54.49
48964;BME280;34776;48.180;16.420;2022-07-10T07:52:15;100038.47;;;19.85;55.16
48964;BME280;34776;48.180;16.420;2022-07-10T07:54:40;100043.66;;;19.56;55.59
48964;BME280;34776;48.180;16.420;2022-07-10T07:57:06;100050.25;;;19.31;56.08
48964;BME280;34776;48.180;16.420;2022-07-10T07:59:31;100053.03;;;19.08;56.67
48964;BME280;34776;48.180;16.420;2022-07-10T08:01:57;100047.47;;;18.89;57.84
48964;BME280;34776;48.180;16.420;2022-07-10T08:04:22;100047.00;;;18.61;59.68
48964;BME280;34776;48.180;16.420;2022-07-10T08:06:48;100048.34;;;18.33;61.62
48964;BME280;34776;48.180;16.420;2022-07-10T08:09:17;100060.00;;;17.64;64.94
48964;BME280;34776;48.180;16.420;2022-07-10T08:11:43;100059.84;;;16.95;68.51
48964;BME280;34776;48.180;16.420;2022-07-10T08:14:08;100060.53;;;16.60;70.72
48964;BME280;34776;48.180;16.420;2022-07-10T08:16:34;100063.66;;;16.54;71.29
48964;BME280;34776;48.180;16.420;2022-07-10T08:19:00;100066.63;;;16.75;70.95
48964;BME280;34776;48.180;16.420;2022-07-10T08:21:26;100073.84;;;16.98;70.35
48964;BME280;34776;48.180;16.420;2022-07-10T08:23:51;100065.75;;;17.11;70.55
48964;BME280;34776;48.180;16.420;2022-07-10T08:26:19;100073.53;;;17.27;69.47
48964;BME280;34776;48.180;16.420;2022-07-10T08:28:44;100071.31;;;17.56;69.91
48964;BME280;34776;48.180;16.420;2022-07-10T08:31:09;100074.91;;;17.68;68.55
48964;BME280;34776;48.180;16.420;2022-07-10T08:33:35;100079.03;;;17.96;68.35
48964;BME280;34776;48.180;16.420;2022-07-10T08:36:01;100069.78;;;18.23;68.26
48964;BME280;34776;48.180;16.420;2022-07-10T08:38:26;100065.84;;;18.38;66.41
48964;BME280;34776;48.180;16.420;2022-07-10T08:40:53;100067.06;;;18.34;65.73
48964;BME280;34776;48.180;16.420;2022-07-10T08:43:21;100069.16;;;18.19;65.46
48964;BME280;34776;48.180;16.420;2022-07-10T08:45:47;100078.81;;;18.22;65.68
48964;BME280;34776;48.180;16.420;2022-07-10T08:48:18;100081.00;;;18.39;64.39
48964;BME280;34776;48.180;16.420;2022-07-10T08:50:47;100074.16;;;18.58;62.37
48964;BME280;34776;48.180;16.420;2022-07-10T08:53:16;100066.66;;;19.39;59.38
48964;BME280;34776;48.180;16.420;2022-07-10T08:55:44;100059.72;;;21.50;55.72
48964;BME280;34776;48.180;16.420;2022-07-10T08:58:12;100059.84;;;22.90;51.57
48964;BME280;34776;48.180;16.420;2022-07-10T09:00:37;100072.13;;;22.29;51.87
48964;BME280;34776;48.180;16.420;2022-07-10T09:03:03;100075.88;;;20.92;53.95
48964;BME280;34776;48.180;16.420;2022-07-10T09:05:28;100078.41;;;19.91;56.36
48964;BME280;34776;48.180;16.420;2022-07-10T09:07:54;100066.06;;;20.50;57.23
48964;BME280;34776;48.180;16.420;2022-07-10T09:10:21;100061.69;;;21.28;55.31
48964;BME280;34776;48.180;16.420;2022-07-10T09:13:01;100068.22;;;21.94;53.08
48964;BME280;34776;48.180;16.420;2022-07-10T09:15:31;100052.25;;;23.57;51.51
48964;BME280;34776;48.180;16.420;2022-07-10T09:18:02;100041.94;;;24.82;50.31
48964;BME280;34776;48.180;16.420;2022-07-10T09:20:33;100054.41;;;24.92;48.03
48964;BME280;34776;48.180;16.420;2022-07-10T09:23:21;100040.03;;;24.31;46.52
48964;BME280;34776;48.180;16.420;2022-07-10T09:25:48;100041.75;;;24.06;50.63
48964;BME280;34776;48.180;16.420;2022-07-10T09:28:16;100042.78;;;23.79;50.98
48964;BME280;34776;48.180;16.420;2022-07-10T09:30:42;100036.44;;;23.35;51.00
48964;BME280;34776;48.180;16.420;2022-07-10T09:36:09;100041.38;;;22.58;48.66
48964;BME280;34776;48.180;16.420;2022-07-10T09:41:27;100047.31;;;22.34;49.29
48964;BME280;34776;48.180;16.420;2022-07-10T09:46:26;100055.59;;;22.32;50.24
48964;BME280;34776;48.180;16.420;2022-07-10T09:49:11;100044.16;;;22.38;49.61
48964;BME280;34776;48.180;16.420;2022-07-10T09:51:40;100042.19;;;22.86;49.42
48964;BME280;34776;48.180;16.420;2022-07-10T09:54:07;100049.91;;;23.26;47.91
48964;BME280;34776;48.180;16.420;2022-07-10T09:56:39;100037.69;;;23.22;47.40
48964;BME280;34776;48.180;16.420;2022-07-10T09:59:13;100032.13;;;23.42;47.68
48964;BME280;34776;48.180;16.420;2022-07-10T10:01:59;100045.28;;;23.37;46.41
48964;BME280;34776;48.180;16.420;2022-07-10T10:04:28;100040.19;;;23.34;46.50
48964;BME280;34776;48.180;16.420;2022-07-10T10:06:59;100034.13;;;22.48;46.96
48964;BME280;34776;48.180;16.420;2022-07-10T10:09:28;100032.09;;;22.33;48.45
48964;BME280;34776;48.180;16.420;2022-07-10T10:12:02;100020.78;;;22.47;48.20
48964;BME280;34776;48.180;16.420;2022-07-10T10:14:31;100015.59;;;22.54;47.90
48964;BME280;34776;48.180;16.420;2022-07-10T10:16:58;100024.19;;;22.49;48.07
48964;BME280;34776;48.180;16.420;2022-07-10T10:19:26;100021.31;;;22.50;48.06
48964;BME280;34776;48.180;16.420;2022-07-10T10:22:12;100025.72;;;22.24;47.84
48964;BME280;34776;48.180;16.420;2022-07-10T10:24:38;100020.91;;;21.98;47.95
48964;BME280;34776;48.180;16.420;2022-07-10T10:27:05;100024.31;;;22.00;47.95
48964;BME280;34776;48.180;16.420;2022-07-10T10:29:32;100020.91;;;22.08;48.01
48964;BME280;34776;48.180;16.420;2022-07-10T10:31:59;100020.56;;;22.21;47.79
48964;BME280;34776;48.180;16.420;2022-07-10T10:34:41;100011.59;;;22.30;46.64
48964;BME280;34776;48.180;16.420;2022-07-10T10:39:54;100012.59;;;23.20;45.32
48964;BME280;34776;48.180;16.420;2022-07-10T10:42:41;100001.81;;;23.28;43.18
48964;BME280;34776;48.180;16.420;2022-07-10T10:45:26;99998.63;;;22.79;45.07
48964;BME280;34776;48.180;16.420;2022-07-10T10:47:58;99996.91;;;22.78;45.31
48964;BME280;34776;48.180;16.420;2022-07-10T10:50:56;99995.63;;;22.55;44.06
48964;BME280;34776;48.180;16.420;2022-07-10T10:53:25;99993.78;;;22.27;45.35
48964;BME280;34776;48.180;16.420;2022-07-10T10:58:45;99994.50;;;22.20;45.69
48964;BME280;34776;48.180;16.420;2022-07-10T11:01:28;100002.56;;;22.39;43.53
48964;BME280;34776;48.180;16.420;2022-07-10T11:06:53;99992.78;;;23.02;42.29
48964;BME280;34776;48.180;16.420;2022-07-10T11:12:06;99983.59;;;23.39;41.06
48964;BME280;34776;48.180;16.420;2022-07-10T11:14:39;99987.34;;;23.38;41.00
48964;BME280;34776;48.180;16.420;2022-07-10T11:17:06;99997.63;;;23.34;41.51
48964;BME280;34776;48.180;16.420;2022-07-10T11:19:33;99987.63;;;22.99;42.01
48964;BME280;34776;48.180;16.420;2022-07-10T11:24:55;99972.13;;;22.73;40.20
48964;BME280;34776;48.180;16.420;2022-07-10T11:29:57;99978.69;;;23.16;40.51
48964;BME280;34776;48.180;16.420;2022-07-10T11:32:22;99983.72;;;23.55;40.74
48964;BME280;34776;48.180;16.420;2022-07-10T11:34:48;99994.38;;;23.75;40.01
48964;BME280;34776;48.180;16.420;2022-07-10T11:37:15;99982.91;;;23.81;39.90
48964;BME280;34776;48.180;16.420;2022-07-10T11:39:41;99977.56;;;24.23;39.18
48964;BME280;34776;48.180;16.420;2022-07-10T11:42:06;99974.91;;;24.48;38.37
48964;BME280;34776;48.180;16.420;2022-07-10T11:44:32;99974.84;;;24.31;38.64
48964;BME280;34776;48.180;16.420;2022-07-10T11:46:57;99980.69;;;24.02;38.94
48964;BME280;34776;48.180;16.420;2022-07-10T11:49:23;99972.75;;;23.39;39.41
48964;BME280;34776;48.180;16.420;2022-07-10T11:51:49;99985.53;;;22.93;39.78
48964;BME280;34776;48.180;16.420;2022-07-10T11:54:16;99988.84;;;22.86;40.28
48964;BME280;34776;48.180;16.420;2022-07-10T11:56:51;99985.72;;;23.27;38.99
48964;BME280;34776;48.180;16.420;2022-07-10T11:59:27;99994.38;;;23.75;38.00
48964;BME280;34776;48.180;16.420;2022-07-10T12:01:54;99976.06;;;24.37;37.86
48964;BME280;34776;48.180;16.420;2022-07-10T12:04:22;99979.13;;;24.93;36.82
48964;BME280;34776;48.180;16.420;2022-07-10T12:06:50;99976.81;;;25.31;36.09
48964;BME280;34776;48.180;16.420;2022-07-10T12:09:18;99968.59;;;25.06;35.85
48964;BME280;34776;48.180;16.420;2022-07-10T12:12:05;99974.69;;;24.67;35.38
48964;BME280;34776;48.180;16.420;2022-07-10T12:14:32;99978.94;;;24.70;36.42
48964;BME280;34776;48.180;16.420;2022-07-10T12:16:59;99965.31;;;24.62;36.31
48964;BME280;34776;48.180;16.420;2022-07-10T12:19:25;99959.25;;;25.09;35.73
48964;BME280;34776;48.180;16.420;2022-07-10T12:21:52;99953.53;;;25.20;35.07
48964;BME280;34776;48.180;16.420;2022-07-10T12:24:19;99958.97;;;25.20;34.41
48964;BME280;34776;48.180;16.420;2022-07-10T12:26:49;99963.75;;;24.51;35.25
48964;BME280;34776;48.180;16.420;2022-07-10T12:31:44;99946.66;;;24.24;34.90
48964;BME280;34776;48.180;16.420;2022-07-10T12:34:11;99943.03;;;24.07;34.52
48964;BME280;34776;48.180;16.420;2022-07-10T12:36:55;99959.53;;;24.65;32.19
48964;BME280;34776;48.180;16.420;2022-07-10T12:39:23;99955.88;;;25.15;32.64
48964;BME280;34776;48.180;16.420;2022-07-10T12:42:00;99952.31;;;25.56;30.21
48964;BME280;34776;48.180;16.420;2022-07-10T12:44:34;99946.63;;;25.98;30.94
48964;BME280;34776;48.180;16.420;2022-07-10T12:47:06;99959.56;;;25.96;30.09
48964;BME280;34776;48.180;16.420;2022-07-10T12:50:03;99969.66;;;25.46;31.05
48964;BME280;34776;48.180;16.420;2022-07-10T12:52:36;99968.63;;;25.15;32.55
48964;BME280;34776;48.180;16.420;2022-07-10T12:55:08;99955.75;;;26.13;31.18
48964;BME280;34776;48.180;16.420;2022-07-10T12:57:58;99965.25;;;26.65;29.59
48964;BME280;34776;48.180;16.420;2022-07-10T13:03:06;99964.78;;;27.08;28.22
48964;BME280;34776;48.180;16.420;2022-07-10T13:05:40;99965.25;;;27.11;29.13
48964;BME280;34776;48.180;16.420;2022-07-10T13:08:19;99963.78;;;26.46;29.65
48964;BME280;34776;48.180;16.420;2022-07-10T13:10:57;99964.91;;;26.52;28.87
48964;BME280;34776;48.180;16.420;2022-07-10T13:13:25;99970.06;;;26.47;30.11
48964;BME280;34776;48.180;16.420;2022-07-10T13:15:51;99977.22;;;26.08;30.81